createdAt,value
2023-05-02T05:03:10.134Z,36.80
2023-05-02T05:04:11.260Z,36.79
2023-05-02T05:05:10.083Z,36.79
2023-05-02T05:06:11.171Z,36.79
2023-05-02T05:07:11.123Z,36.76
2023-05-02T05:08:11.121Z,36.82
2023-05-02T05:09:11.149Z,36.75
2023-05-02T05:10:11.294Z,36.76
2023-05-02T05:11:10.246Z,36.72
2023-05-02T05:12:11.273Z,36.74
2023-05-02T05:13:10.313Z,36.73
2023-05-02T05:14:10.357Z,36.67
2023-05-02T05:15:10.357Z,36.75
2023-05-02T05:16:10.378Z,36.69
2023-05-02T05:17:10.352Z,36.67
2023-05-02T05:18:10.437Z,36.70
2023-05-02T05:19:10.395Z,36.67
2023-05-02T05:20:10.403Z,36.69
2023-05-02T05:21:11.402Z,36.65
2023-05-02T05:22:11.401Z,36.64
2023-05-02T05:23:11.408Z,36.63
2023-05-02T05:24:11.389Z,36.63
2023-05-02T05:25:11.395Z,36.62
2023-05-02T05:26:11.397Z,36.67
2023-05-02T05:27:10.397Z,36.63
2023-05-02T05:28:11.417Z,36.63
2023-05-02T05:29:10.393Z,36.66
2023-05-02T05:30:11.396Z,36.66
2023-05-02T05:31:11.439Z,36.62
2023-05-02T05:32:10.531Z,36.62
2023-05-02T05:33:11.448Z,36.62
2023-05-02T05:34:10.403Z,36.58
2023-05-02T05:35:10.422Z,36.63
2023-05-02T05:36:11.389Z,36.60
2023-05-02T05:37:10.389Z,36.63
2023-05-02T05:38:11.401Z,36.65
2023-05-02T05:39:11.371Z,36.64
2023-05-02T05:40:10.368Z,36.65
2023-05-02T05:41:11.475Z,36.58
2023-05-02T05:42:11.382Z,36.68
2023-05-02T05:43:11.371Z,36.66
2023-05-02T05:44:10.375Z,36.64
2023-05-02T05:45:11.364Z,36.69
2023-05-02T05:46:11.360Z,36.66
2023-05-02T05:47:11.410Z,36.65
2023-05-02T05:48:10.380Z,36.65
2023-05-02T05:49:10.364Z,36.66
2023-05-02T05:50:11.364Z,36.68
2023-05-02T05:51:10.396Z,36.65
2023-05-02T05:52:11.363Z,36.65
2023-05-02T05:53:11.341Z,36.62
2023-05-02T05:54:11.340Z,36.62
2023-05-02T05:55:11.335Z,36.63
2023-05-02T05:56:10.347Z,36.62
2023-05-02T05:57:10.335Z,36.60
2023-05-02T05:58:11.334Z,36.61
2023-05-02T05:59:10.333Z,36.63
2023-05-02T06:00:11.359Z,36.61
2023-05-02T06:01:10.321Z,36.58
2023-05-02T06:02:11.434Z,36.57
2023-05-02T06:03:11.458Z,36.61
2023-05-02T06:04:11.463Z,36.58
2023-05-02T06:05:11.440Z,36.54
2023-05-02T06:06:10.371Z,36.57
2023-05-02T06:07:11.347Z,36.58
2023-05-02T06:08:11.334Z,36.57
2023-05-02T06:09:10.330Z,36.57
2023-05-02T06:10:10.336Z,36.54
2023-05-02T06:11:10.318Z,36.58
2023-05-02T06:12:10.316Z,36.61
2023-05-02T06:13:11.333Z,36.60
2023-05-02T06:14:11.305Z,36.58
2023-05-02T06:15:11.298Z,36.62
2023-05-02T06:16:11.340Z,36.64
2023-05-02T06:17:11.314Z,36.61
2023-05-02T06:18:11.360Z,36.61
2023-05-02T06:19:11.292Z,36.58
2023-05-02T06:20:10.323Z,36.61
2023-05-02T06:21:11.287Z,36.64
2023-05-02T06:22:11.393Z,36.57
2023-05-02T06:23:11.322Z,36.58
2023-05-02T06:24:11.298Z,36.60
2023-05-02T06:25:11.278Z,36.63
2023-05-02T06:26:11.282Z,36.60
2023-05-02T06:27:11.298Z,36.60
2023-05-02T06:28:10.279Z,36.61
2023-05-02T06:29:10.264Z,36.58
2023-05-02T06:30:11.255Z,36.59
2023-05-02T06:31:10.309Z,36.59
2023-05-02T06:32:10.307Z,36.56
2023-05-02T06:33:11.332Z,36.56
2023-05-02T06:34:11.263Z,36.59
2023-05-02T06:35:11.245Z,36.62
2023-05-02T06:36:11.259Z,36.62
2023-05-02T06:37:11.235Z,36.65
2023-05-02T06:38:11.236Z,36.60
2023-05-02T06:39:10.366Z,36.65
2023-05-02T06:40:10.233Z,36.65
2023-05-02T06:41:10.219Z,36.58
2023-05-02T06:42:11.211Z,36.62
2023-05-02T06:43:10.199Z,36.66
2023-05-02T06:44:11.217Z,36.61
2023-05-02T06:45:11.202Z,36.66
2023-05-02T06:46:10.217Z,36.66
2023-05-02T06:47:10.315Z,36.64
2023-05-02T06:48:10.234Z,36.63
2023-05-02T06:49:10.224Z,36.64
2023-05-02T06:50:11.173Z,36.72
2023-05-02T06:51:11.182Z,36.66
2023-05-02T06:52:11.376Z,36.71
2023-05-02T06:53:11.209Z,36.69
2023-05-02T06:54:11.201Z,36.74
2023-05-02T06:55:10.418Z,36.78
2023-05-02T06:56:11.171Z,36.84
2023-05-02T06:57:10.394Z,36.71
2023-05-02T06:58:11.176Z,36.79
2023-05-02T06:59:11.217Z,36.88
2023-05-02T07:00:11.166Z,36.87
2023-05-02T07:01:11.242Z,36.91
2023-05-02T07:02:11.184Z,36.94
2023-05-02T07:03:11.337Z,37.04
2023-05-02T07:04:11.337Z,37.17
2023-05-02T07:05:10.219Z,37.12
2023-05-02T07:06:11.264Z,37.60
2023-05-02T07:07:11.284Z,37.54
2023-05-02T07:08:11.302Z,38.07
2023-05-02T07:09:11.356Z,37.61
2023-05-02T07:10:11.401Z,38.15
2023-05-02T07:11:11.654Z,37.73
2023-05-02T07:12:11.514Z,38.29
2023-05-02T07:13:11.557Z,38.05
2023-05-02T07:14:11.588Z,38.24
2023-05-02T07:15:11.624Z,38.64
2023-05-02T07:16:10.816Z,38.49
2023-05-02T07:17:11.733Z,38.56
2023-05-02T07:18:11.839Z,38.61
2023-05-02T07:19:11.774Z,38.59
2023-05-02T07:20:11.804Z,38.67
2023-05-02T07:21:11.829Z,38.66
2023-05-02T07:22:10.877Z,38.87
2023-05-02T07:23:10.931Z,38.98
2023-05-02T07:24:10.971Z,38.68
2023-05-02T07:25:11.021Z,39.20
2023-05-02T07:26:12.056Z,39.04
2023-05-02T07:27:11.115Z,38.77
2023-05-02T07:28:12.154Z,38.91
2023-05-02T07:29:12.180Z,38.93
2023-05-02T07:30:11.238Z,38.96
2023-05-02T07:31:11.295Z,38.79
2023-05-02T07:32:12.458Z,38.75
2023-05-02T07:33:11.400Z,38.81
2023-05-02T07:34:11.428Z,38.71
2023-05-02T07:35:11.457Z,38.80
2023-05-02T07:36:11.496Z,38.76
2023-05-02T07:37:12.544Z,38.74
2023-05-02T07:38:12.567Z,38.84
2023-05-02T07:39:11.596Z,39.06
2023-05-02T07:40:12.643Z,38.85
2023-05-02T07:41:12.682Z,38.96
2023-05-02T07:42:11.713Z,39.05
2023-05-02T07:43:12.794Z,38.87
2023-05-02T07:44:11.792Z,38.96
2023-05-02T07:45:12.837Z,39.13
2023-05-02T07:46:11.944Z,39.00
2023-05-02T07:47:12.400Z,39.25
2023-05-02T07:48:12.011Z,39.10
2023-05-02T07:49:12.995Z,39.35
2023-05-02T07:50:12.047Z,39.59
2023-05-02T07:51:12.103Z,39.68
2023-05-02T07:52:13.409Z,39.60
2023-05-02T07:53:13.184Z,39.69
2023-05-02T07:54:13.230Z,40.66
2023-05-02T07:55:13.259Z,40.18
2023-05-02T07:56:12.289Z,40.36
2023-05-02T07:57:13.396Z,40.49
2023-05-02T07:58:13.405Z,40.60
2023-05-02T07:59:12.480Z,40.74
2023-05-02T08:00:13.519Z,40.74
2023-05-02T08:01:12.574Z,40.82
2023-05-02T08:02:12.658Z,41.11
2023-05-02T08:03:13.737Z,40.44
2023-05-02T08:04:12.910Z,40.66
2023-05-02T08:05:13.805Z,40.56
2023-05-02T08:06:13.853Z,41.02
2023-05-02T08:07:13.839Z,40.34
2023-05-02T08:08:13.874Z,40.89
2023-05-02T08:09:13.914Z,40.59
2023-05-02T08:10:13.966Z,40.54
2023-05-02T08:11:13.023Z,40.82
2023-05-02T08:12:14.062Z,40.89
2023-05-02T08:13:14.067Z,40.50
2023-05-02T08:14:13.094Z,40.47
2023-05-02T08:19:04.326Z,40.47
2023-05-02T08:20:05.303Z,40.41
2023-05-02T08:21:04.331Z,40.35
2023-05-02T08:22:05.376Z,40.17
2023-05-02T08:23:05.419Z,40.50
2023-05-02T08:24:04.419Z,40.59
2023-05-02T08:25:04.460Z,40.71
2023-05-02T08:26:04.521Z,40.64
2023-05-02T08:27:04.561Z,40.60
2023-05-02T08:28:04.631Z,40.77
2023-05-02T08:29:05.636Z,40.52
2023-05-02T08:30:05.881Z,40.48
2023-05-02T08:31:08.741Z,40.30
2023-05-02T08:32:05.915Z,40.61
2023-05-02T08:33:05.710Z,40.81
2023-05-02T08:34:05.680Z,40.79
2023-05-02T08:35:05.731Z,40.58
2023-05-02T08:36:04.669Z,40.68
2023-05-02T08:37:05.653Z,40.53
2023-05-02T08:38:04.659Z,40.57
2023-05-02T08:39:04.641Z,40.63
2023-05-02T08:40:05.638Z,40.65
2023-05-02T08:41:05.617Z,40.44
2023-05-02T08:42:05.814Z,40.35
2023-05-02T08:43:06.121Z,40.26
2023-05-02T08:44:05.613Z,40.31
2023-05-02T08:45:04.649Z,40.39
2023-05-02T08:46:05.595Z,40.27
2023-05-02T08:47:05.734Z,40.19
2023-05-02T08:48:05.623Z,40.35
2023-05-02T08:49:05.564Z,40.22
2023-05-02T08:50:05.580Z,39.98
2023-05-02T08:51:05.619Z,39.97
2023-05-02T08:52:05.565Z,39.93
2023-05-02T08:53:05.548Z,39.96
2023-05-02T08:54:04.528Z,39.81
2023-05-02T08:55:05.523Z,39.81
2023-05-02T08:56:04.533Z,39.78
2023-05-02T08:57:05.525Z,39.76
2023-05-02T08:58:05.630Z,39.81
2023-05-02T08:59:04.506Z,40.05
2023-05-02T09:00:04.494Z,40.12
2023-05-02T09:01:04.541Z,40.21
2023-05-02T09:02:04.467Z,40.13
2023-05-02T09:03:05.555Z,40.40
2023-05-02T09:04:04.608Z,40.47
2023-05-02T09:05:04.456Z,40.55
2023-05-02T09:06:05.494Z,40.72
2023-05-02T09:07:05.458Z,40.87
2023-05-02T09:08:04.417Z,40.81
2023-05-02T09:09:04.426Z,40.73
2023-05-02T09:10:05.407Z,40.84
2023-05-02T09:11:04.392Z,40.84
2023-05-02T09:12:04.397Z,40.90
2023-05-02T09:13:05.391Z,40.78
2023-05-02T09:14:05.372Z,40.98
2023-05-02T09:15:04.363Z,40.97
2023-05-02T09:16:05.486Z,41.05
2023-05-02T09:17:04.357Z,41.13
2023-05-02T09:18:05.415Z,40.99
2023-05-02T09:19:05.350Z,41.01
2023-05-02T09:20:04.334Z,41.07
2023-05-02T09:21:05.324Z,41.07
2023-05-02T09:22:05.322Z,41.06
2023-05-02T09:23:05.337Z,41.16
2023-05-02T09:24:05.294Z,41.14
2023-05-02T09:25:05.288Z,41.05
2023-05-02T09:26:05.303Z,41.25
2023-05-02T09:27:05.293Z,41.42
2023-05-02T09:28:05.295Z,41.42
2023-05-02T09:29:04.346Z,41.54
2023-05-02T09:30:04.269Z,41.37
2023-05-02T09:31:05.287Z,41.49
2023-05-02T09:32:05.263Z,41.34
2023-05-02T09:33:05.275Z,41.61
2023-05-02T09:34:05.247Z,41.54
2023-05-02T09:35:04.228Z,41.57
2023-05-02T09:36:04.225Z,41.33
2023-05-02T09:37:05.212Z,41.45
2023-05-02T09:38:05.233Z,41.27
2023-05-02T09:39:05.264Z,41.27
2023-05-02T09:40:04.255Z,41.38
2023-05-02T09:41:05.246Z,41.49
2023-05-02T09:42:05.268Z,41.66
2023-05-02T09:43:05.288Z,41.81
2023-05-02T09:44:05.265Z,42.03
2023-05-02T09:45:04.267Z,41.91
2023-05-02T09:46:05.306Z,41.79
2023-05-02T09:47:05.270Z,41.91
2023-05-02T09:48:05.702Z,41.81
2023-05-02T09:49:04.259Z,41.92
2023-05-02T09:50:05.255Z,41.95
2023-05-02T09:51:04.251Z,41.96
2023-05-02T09:52:04.295Z,41.92
2023-05-02T09:53:05.288Z,41.85
2023-05-02T09:54:05.306Z,42.08
2023-05-02T09:55:04.323Z,42.57
2023-05-02T09:56:05.304Z,42.70
2023-05-02T09:57:04.294Z,42.64
2023-05-02T09:58:05.309Z,42.91
2023-05-02T09:59:04.294Z,43.04
2023-05-02T10:00:05.307Z,43.20
2023-05-02T10:01:05.352Z,43.37
2023-05-02T10:02:05.531Z,43.36
2023-05-02T10:03:04.512Z,43.69
2023-05-02T10:04:04.571Z,43.88
2023-05-02T10:05:05.600Z,43.38
2023-05-02T10:06:05.710Z,43.31
2023-05-02T10:07:05.724Z,43.92
2023-05-02T10:08:04.782Z,43.69
2023-05-02T10:09:05.838Z,43.68
2023-05-02T10:10:04.908Z,44.13
2023-05-02T10:11:05.970Z,43.98
2023-05-02T10:12:05.141Z,44.31
2023-05-02T10:13:06.067Z,44.05
2023-05-02T10:14:06.122Z,44.32
2023-05-02T10:15:06.160Z,44.24
2023-05-02T10:16:05.573Z,44.02
2023-05-02T10:17:05.262Z,44.45
2023-05-02T10:18:05.317Z,44.55
2023-05-02T10:19:06.336Z,44.63
2023-05-02T10:20:06.387Z,44.58
2023-05-02T10:21:05.426Z,44.94
2023-05-02T10:22:06.486Z,44.77
2023-05-02T10:23:06.512Z,44.77
2023-05-02T10:24:06.560Z,44.79
2023-05-02T10:25:05.629Z,44.49
2023-05-02T10:26:06.666Z,44.48
2023-05-02T10:27:06.755Z,44.68
2023-05-02T10:28:05.728Z,44.47
2023-05-02T10:29:06.768Z,44.56
2023-05-02T10:30:05.767Z,43.66
2023-05-02T10:31:06.771Z,44.36
2023-05-02T10:32:05.962Z,43.69
2023-05-02T10:33:06.861Z,43.81
2023-05-02T10:34:06.813Z,43.83
2023-05-02T10:35:06.869Z,43.58
2023-05-02T10:36:05.860Z,43.70
2023-05-02T10:37:06.918Z,44.30
2023-05-02T10:38:05.917Z,43.68
2023-05-02T10:39:05.950Z,44.12
2023-05-02T10:40:07.011Z,44.18
2023-05-02T10:41:06.051Z,40.73
2023-05-02T10:42:06.079Z,44.54
2023-05-02T10:43:07.124Z,43.64
2023-05-02T10:44:06.659Z,45.11
2023-05-02T10:45:06.170Z,46.54
2023-05-02T10:46:07.222Z,44.40
2023-05-02T10:47:06.393Z,44.22
2023-05-02T10:48:06.293Z,43.54
2023-05-02T10:49:06.392Z,46.25
2023-05-02T10:50:07.294Z,45.07
2023-05-02T10:51:07.332Z,44.38
2023-05-02T10:52:07.416Z,45.32
2023-05-02T10:53:07.376Z,45.17
2023-05-02T10:54:07.449Z,44.75
2023-05-02T10:55:07.424Z,44.88
2023-05-02T10:56:06.488Z,44.48
2023-05-02T10:57:07.557Z,44.60
2023-05-02T10:58:07.568Z,43.97
2023-05-02T10:59:06.634Z,43.74
2023-05-02T11:00:06.619Z,43.81
2023-05-02T11:01:07.723Z,43.47
2023-05-02T11:02:07.821Z,42.33
2023-05-02T11:03:07.795Z,42.45
2023-05-02T11:04:07.797Z,42.85
2023-05-02T11:05:06.854Z,43.97
2023-05-02T11:06:08.057Z,43.80
2023-05-02T11:07:06.969Z,42.50
2023-05-02T11:08:08.004Z,44.00
2023-05-02T11:09:08.067Z,43.97
2023-05-02T11:10:08.079Z,43.66
2023-05-02T11:11:08.113Z,43.98
2023-05-02T11:12:08.163Z,43.88
2023-05-02T11:13:07.146Z,43.87
2023-05-02T11:14:08.164Z,43.75
2023-05-02T11:15:07.187Z,43.44
2023-05-02T11:16:08.193Z,43.29
2023-05-02T11:17:08.175Z,43.38
2023-05-02T11:18:08.247Z,43.49
2023-05-02T11:19:08.191Z,43.31
2023-05-02T11:20:07.175Z,43.25
2023-05-02T11:21:08.168Z,42.75
2023-05-02T11:22:08.187Z,42.97
2023-05-02T11:23:08.175Z,42.80
2023-05-02T11:24:07.226Z,42.31
2023-05-02T11:25:07.211Z,41.59
2023-05-02T11:26:08.268Z,42.36
2023-05-02T11:27:08.290Z,41.70
2023-05-02T11:28:07.354Z,42.12
2023-05-02T11:29:08.370Z,42.52
2023-05-02T11:30:07.406Z,42.70
2023-05-02T11:31:08.448Z,42.36
2023-05-02T11:32:08.722Z,42.84
2023-05-02T11:33:08.711Z,41.82
2023-05-02T11:34:07.554Z,41.26
2023-05-02T11:35:07.558Z,40.56
2023-05-02T11:36:07.631Z,40.39
2023-05-02T11:37:07.599Z,40.41
2023-05-02T11:38:08.624Z,40.55
2023-05-02T11:39:08.213Z,40.54
2023-05-02T11:40:08.671Z,40.73
2023-05-02T11:41:08.708Z,40.98
2023-05-02T11:42:08.742Z,41.10
2023-05-02T11:43:08.789Z,41.38
2023-05-02T11:44:08.917Z,41.45
2023-05-02T11:45:08.917Z,41.64
2023-05-02T11:46:08.047Z,41.85
2023-05-02T11:47:08.147Z,41.95
2023-05-02T11:48:08.213Z,42.00
2023-05-02T11:49:10.552Z,42.07
2023-05-02T11:50:09.099Z,42.07
2023-05-02T11:51:08.079Z,42.01
2023-05-02T11:52:09.089Z,42.06
2023-05-02T11:53:08.056Z,42.07
2023-05-02T11:54:08.106Z,42.06
2023-05-02T11:55:09.787Z,42.00
2023-05-02T11:56:09.144Z,42.02
2023-05-02T11:57:08.074Z,42.01
2023-05-02T11:58:08.048Z,42.03
2023-05-02T11:59:08.042Z,42.08
2023-05-02T12:00:08.083Z,42.16
2023-05-02T12:01:09.518Z,42.01
2023-05-02T12:02:08.121Z,41.96
2023-05-02T12:03:08.096Z,41.86
2023-05-02T12:04:08.233Z,41.80
2023-05-02T12:05:08.034Z,41.72
2023-05-02T12:06:08.069Z,41.67
2023-05-02T12:07:11.591Z,41.59
2023-05-02T12:08:08.966Z,41.55
2023-05-02T12:09:08.961Z,41.55
2023-05-02T12:10:08.966Z,41.55
2023-05-02T12:11:08.932Z,41.49
2023-05-02T12:12:07.924Z,41.44
2023-05-02T12:13:10.159Z,41.34
2023-05-02T12:14:08.927Z,41.27
2023-05-02T12:15:08.912Z,41.31
2023-05-02T12:16:07.908Z,41.18
2023-05-02T12:17:08.877Z,41.23
2023-05-02T12:18:08.984Z,41.15
2023-05-02T12:19:08.908Z,41.11
2023-05-02T12:20:08.945Z,41.03
2023-05-02T12:21:08.870Z,41.04
2023-05-02T12:22:08.853Z,40.93
2023-05-02T12:23:07.844Z,40.93
2023-05-02T12:24:08.837Z,40.90
2023-05-02T12:25:07.828Z,40.87
2023-05-02T12:26:07.818Z,40.83
2023-05-02T12:27:07.825Z,40.83
2023-05-02T12:28:08.803Z,40.77
2023-05-02T12:29:07.794Z,40.65
2023-05-02T12:30:08.785Z,40.64
2023-05-02T12:31:08.808Z,40.63
2023-05-02T12:32:08.770Z,40.59
2023-05-02T12:33:07.937Z,40.66
2023-05-02T12:34:08.753Z,40.55
2023-05-02T12:35:08.764Z,40.56
2023-05-02T12:36:07.742Z,40.55
2023-05-02T12:37:07.862Z,40.65
2023-05-02T12:38:08.768Z,40.55
2023-05-02T12:39:08.727Z,40.61
2023-05-02T12:40:08.735Z,40.53
2023-05-02T12:41:07.712Z,40.60
2023-05-02T12:42:07.705Z,40.56
2023-05-02T12:43:08.714Z,40.63
2023-05-02T12:44:08.685Z,40.61
2023-05-02T12:45:07.674Z,40.63
2023-05-02T12:46:08.675Z,40.73
2023-05-02T12:47:08.985Z,41.92
2023-05-02T12:48:08.721Z,42.48
2023-05-02T12:49:08.643Z,42.16
2023-05-02T12:50:08.654Z,42.91
2023-05-02T12:51:08.649Z,42.84
2023-05-02T12:52:07.633Z,43.22
2023-05-02T12:53:08.630Z,43.14
2023-05-02T12:54:07.596Z,42.23
2023-05-02T12:55:08.597Z,42.17
2023-05-02T12:56:07.605Z,42.36
2023-05-02T12:57:07.578Z,42.46
2023-05-02T12:58:08.567Z,42.45
2023-05-02T12:59:07.573Z,42.50
2023-05-02T13:00:07.574Z,42.51
2023-05-02T13:01:07.578Z,42.54
2023-05-02T13:02:08.564Z,42.65
2023-05-02T13:03:08.609Z,42.57
2023-05-02T13:04:08.622Z,42.77
2023-05-02T13:05:07.527Z,42.70
2023-05-02T13:06:08.529Z,42.67
2023-05-02T13:07:08.527Z,42.63
2023-05-02T13:08:08.516Z,42.71
2023-05-02T13:09:07.593Z,42.64
2023-05-02T13:10:07.499Z,42.61
2023-05-02T13:11:08.485Z,42.54
2023-05-02T13:12:07.509Z,42.53
2023-05-02T13:13:07.485Z,42.43
2023-05-02T13:14:08.469Z,42.44
2023-05-02T13:15:07.479Z,42.40
2023-05-02T13:16:07.568Z,42.34
2023-05-02T13:17:08.668Z,42.44
2023-05-02T13:18:07.531Z,42.40
2023-05-02T13:19:08.444Z,42.38
2023-05-02T13:20:07.777Z,42.34
2023-05-02T13:21:08.421Z,42.35
2023-05-02T13:22:08.403Z,42.32
2023-05-02T13:23:07.715Z,42.34
2023-05-02T13:24:08.390Z,42.29
2023-05-02T13:25:08.401Z,42.16
2023-05-02T13:26:08.390Z,42.07
2023-05-02T13:27:07.381Z,42.09
2023-05-02T13:28:07.381Z,42.07
2023-05-02T13:29:08.373Z,42.07
2023-05-02T13:30:09.428Z,42.13
2023-05-02T13:31:07.441Z,42.10
2023-05-02T13:32:08.415Z,42.07
2023-05-02T13:33:07.471Z,42.08
2023-05-02T13:34:07.446Z,42.10
2023-05-02T13:35:08.477Z,42.07
2023-05-02T13:36:07.492Z,42.08
2023-05-02T13:37:08.459Z,42.03
2023-05-02T13:38:08.474Z,42.08
2023-05-02T13:39:08.523Z,42.09
2023-05-02T13:40:08.560Z,42.12
2023-05-02T13:41:07.509Z,42.02
2023-05-02T13:42:08.529Z,41.97
2023-05-02T13:43:08.544Z,41.98
2023-05-02T13:44:07.541Z,41.98
2023-05-02T13:45:07.569Z,41.94
2023-05-02T13:46:08.598Z,41.93
2023-05-02T13:47:07.589Z,41.94
2023-05-02T13:48:08.634Z,41.95
2023-05-02T13:49:08.623Z,41.94
2023-05-02T13:50:08.635Z,41.84
2023-05-02T13:51:07.653Z,41.89
2023-05-02T13:52:07.683Z,41.91
2023-05-02T13:53:08.660Z,41.85
2023-05-02T13:54:07.679Z,41.80
2023-05-02T13:55:08.708Z,41.83
2023-05-02T13:56:07.714Z,41.76
2023-05-02T13:57:08.738Z,41.76
2023-05-02T13:58:08.730Z,41.76
2023-05-02T13:59:10.323Z,41.87
2023-05-02T14:00:08.745Z,41.82
2023-05-02T14:01:08.781Z,41.84
2023-05-02T14:02:08.742Z,41.67
2023-05-02T14:03:07.861Z,41.68
2023-05-02T14:04:07.878Z,41.66
2023-05-02T14:05:07.757Z,41.64
2023-05-02T14:06:07.745Z,41.60
2023-05-02T14:07:07.677Z,41.61
2023-05-02T14:08:07.683Z,41.65
2023-05-02T14:09:08.651Z,41.66
2023-05-02T14:10:08.649Z,41.63
2023-05-02T14:11:07.670Z,41.57
2023-05-02T14:12:08.639Z,41.54
2023-05-02T14:13:08.629Z,41.61
2023-05-02T14:14:08.621Z,41.71
2023-05-02T14:15:08.612Z,41.62
2023-05-02T14:16:07.754Z,41.66
2023-05-02T14:17:07.595Z,41.77
2023-05-02T14:18:08.626Z,41.80
2023-05-02T14:19:08.696Z,42.04
2023-05-02T14:20:07.569Z,42.02
2023-05-02T14:21:08.560Z,41.92
2023-05-02T14:22:07.544Z,42.00
2023-05-02T14:23:07.870Z,42.03
2023-05-02T14:24:07.534Z,42.04
2023-05-02T14:25:08.530Z,42.11
2023-05-02T14:26:07.521Z,42.08
2023-05-02T14:27:07.540Z,42.08
2023-05-02T14:28:08.517Z,42.18
2023-05-02T14:29:08.544Z,42.11
2023-05-02T14:30:08.494Z,42.12
2023-05-02T14:31:08.523Z,42.23
2023-05-02T14:32:08.666Z,42.30
2023-05-02T14:33:07.504Z,42.17
2023-05-02T14:34:09.041Z,42.32
2023-05-02T14:35:08.465Z,42.26
2023-05-02T14:36:08.431Z,42.23
2023-05-02T14:37:08.434Z,42.47
2023-05-02T14:38:08.423Z,42.25
2023-05-02T14:39:08.430Z,42.46
2023-05-02T14:40:08.418Z,42.46
2023-05-02T14:41:08.400Z,42.32
2023-05-02T14:42:08.407Z,42.40
2023-05-02T14:43:07.413Z,42.43
2023-05-02T14:44:07.393Z,42.52
2023-05-02T14:45:07.374Z,42.42
2023-05-02T14:46:07.370Z,42.40
2023-05-02T14:47:07.430Z,42.45
2023-05-02T14:48:07.382Z,42.47
2023-05-02T14:49:07.349Z,42.43
2023-05-02T14:50:07.367Z,42.67
2023-05-02T14:51:08.323Z,42.46
2023-05-02T14:52:07.319Z,42.37
2023-05-02T14:53:08.315Z,42.46
2023-05-02T14:54:07.309Z,42.56
2023-05-02T14:55:08.294Z,42.38
2023-05-02T14:56:07.293Z,42.37
2023-05-02T14:57:07.307Z,42.39
2023-05-02T14:58:08.277Z,42.47
2023-05-02T14:59:07.293Z,42.33
2023-05-02T15:00:07.754Z,42.43
2023-05-02T15:01:07.324Z,42.35
2023-05-02T15:02:08.291Z,42.31
2023-05-02T15:03:08.031Z,42.29
2023-05-02T15:04:08.416Z,42.30
2023-05-02T15:05:07.229Z,42.12
2023-05-02T15:06:08.329Z,42.21
2023-05-02T15:07:08.353Z,42.25
2023-05-02T15:08:07.196Z,42.29
2023-05-02T15:09:08.194Z,42.18
2023-05-02T15:10:08.192Z,42.16
2023-05-02T15:11:07.174Z,42.27
2023-05-02T15:12:08.174Z,42.31
2023-05-02T15:13:08.160Z,42.29
2023-05-02T15:14:07.157Z,42.22
2023-05-02T15:15:08.198Z,42.33
2023-05-02T15:16:07.211Z,42.17
2023-05-02T15:17:08.221Z,42.12
2023-05-02T15:18:07.227Z,42.21
2023-05-02T15:19:08.202Z,42.15
2023-05-02T15:20:08.213Z,42.17
2023-05-02T15:21:08.252Z,42.07
2023-05-02T15:22:08.268Z,42.17
2023-05-02T15:23:07.272Z,42.18
2023-05-02T15:24:08.276Z,42.13
2023-05-02T15:25:08.312Z,42.06
2023-05-02T15:26:08.304Z,42.08
2023-05-02T15:27:08.336Z,42.09
2023-05-02T15:28:07.341Z,42.06
2023-05-02T15:29:07.369Z,42.02
